challenge Condrusien

Les Drèves de la Vécquée - Seraing (10.80 km)

samedi 12 septembre 2020

Le Classement original se trouve sur : https://www.goaltiming.be          
CHALLENGE CONDRUSIEN
LES DRÈVES DE LA VECQUÉE - SERAING
DISTANCE : 10.78 km
samedi 12 septembre 2020
 
Place Dos NOM Equipe Catégorie Pl/cat temps T/km Vitesse
1 4048 MATHOT MICHEL   V1 1 00:40:26 03:45 16.00
2 114 BAYARD JULIEN SER ATHL SH 1 00:42:37 03:57 15.18
3 4086 ROUELLE JULIAN JCPMF TINLOT SH 2 00:43:56 04:04 14.73
4 86 MAES LAURENT EVOLUTION22 V1 2 00:44:07 04:05 14.66
5 4007 CARPENTIER ALEXANDRE TEAM MCP SH 3 00:44:10 04:06 14.65
6 4054 MUTAMBA JOHAN   SH 4 00:44:56 04:10 14.40
7 4015 DELBECQ SELIM SER ATHL SH 5 00:45:08 04:11 14.33
8 217 THOMAS FLORIAN   SH 6 00:45:37 04:14 14.18
9 4016 DELCHAMBRE FREDERIC VINO TEAM V1 3 00:45:45 04:15 14.14
10 107 DEFLANDRE RUDY SER ATHL V2 1 00:46:14 04:17 13.99
11 93 LAMBOTTE PASCAL SER ATHL V2 2 00:46:46 04:20 13.83
12 4089 ROBINET FREDERIC S FOULÉES DU PLAISIR V2 3 00:46:47 04:20 13.83
13 4051 MEUNIER VINCENT   0 1 00:47:01 04:22 13.76
14 38 LOFORTE ROSARIO SER ATHL V1 4 00:47:02 04:22 13.75
15 189 DE VOS NICOLAS SER ATHL SH 7 00:47:02 04:22 13.75
16 4074 TAHAY ELISE   SD 1 00:47:04 04:22 13.75
17 197 BULTOT CHRISTIAN ARCH V3 1 00:47:10 04:22 13.72
18 4087 DOUPAGNE CLAUDE SER ATHL V2 4 00:47:28 04:24 13.63
19 4024 FAGOT LAURENT TEAM MCP SH 8 00:48:03 04:27 13.46
20 82 CHABOTEAUX NICOLAS TAF SH 9 00:48:12 04:28 13.42
21 4013 DEFECHEREUX FABIAN CRAMPONS DE L'OURTHE V1 5 00:48:19 04:29 13.39
22 4017 DELCOURT RAPHAEL JCPMF HERON V1 6 00:48:26 04:30 13.36
23 4026 FRERES LIONEL   SH 10 00:48:31 04:30 13.33
24 4078 WEIDNER DANIEL S FOULÉES DU PLAISIR V3 2 00:48:55 04:32 13.23
25 4042 LEJEUNE CHRISTOPHE   V2 5 00:49:00 04:33 13.20
26 64 POULIART MICHAEL SER ATHL V1 7 00:49:05 04:33 13.18
27 4050 MELARD JEAN-EMILE   SH 11 00:49:06 04:33 13.18
28 4040 LAVEN NICOLAS TEAM MCP SH 12 00:49:31 04:36 13.06
29 4011 DE VROEDE JORDAN   SH 13 00:49:48 04:37 12.99
30 4090 DURIEUX RODOLPHE   V1 8 00:49:52 04:37 12.97
31 154 LALLEMAND BENOIT S FOULÉES DU PLAISIR V3 3 00:50:10 04:39 12.90
32 104 EL ABBAS SOPHIE SER ATHL SD 2 00:50:22 04:40 12.84
33 214 DARMONT THEO SER ATHL SH 14 00:50:50 04:43 12.73
34 51 SCIFO ROSARIO SER ATHL V1 9 00:50:53 04:43 12.71
35 4001 ACQUISTAPACE SARAH   SD 3 00:51:12 04:45 12.64
36 4080 PILLITTERI CARMELO   V2 6 00:51:12 04:45 12.64
37 4056 NICOSIA LIONEL BINGOAL SH 15 00:51:18 04:45 12.61
38 4085 CAMINELLE MATHIEU   SH 16 00:51:35 04:47 12.54
39 4009 DAL PIVA TIZIANO   SH 17 00:52:03 04:50 12.43
40 159 BINJE VALERIE S FOULÉES DU PLAISIR A2 1 00:52:19 04:51 12.37
41 4066 RIHON PAUL   V3 4 00:52:24 04:52 12.35
42 109 COP THOMAS   SH 18 00:52:46 04:54 12.26
43 4022 DUPONT JEROME   V1 10 00:52:53 04:54 12.23
44 146 MARION NICOLAS LES TÊTARDS SH 19 00:53:07 04:56 12.18
45 106 MARTIN JEAN-FRANCOIS SER ATHL V2 7 00:53:08 04:56 12.18
46 276 MARCHAL OLIVIER JEHAY'S RUNNERS V1 11 00:53:13 04:56 12.16
47 4018 DENDAL DIDIER   V2 8 00:53:22 04:57 12.12
48 4012 DECHAMPS THIBAULT SER ATHL ESH 1 00:53:24 04:57 12.11
49 13 DELHEZ CLAUDE SER ATHL V3 5 00:53:34 04:58 12.08
50 4041 LECOMTE PIERRE   V1 12 00:53:57 05:00 11.99
51 120 DEMOITIE MAUDE JCPMF TINLOT SD 4 00:54:00 05:00 11.98
52 111 DEJARDIN CHRISTELLE #N/A A1 1 00:54:04 05:01 11.97
53 94 LAMBOTTE MANON SER ATHL SD 5 00:54:06 05:01 11.96
54 233 CORDIER CHRISTINE S FOULÉES DU PLAISIR 0 2 00:54:39 05:04 11.84
55 4047 MAHY OLIVIER WACO V2 9 00:54:46 05:05 11.81
56 25 BISSOT NELSON LOGEA SH 20 00:54:46 05:05 11.81
57 4059 PIRARD CATHERINE CRAMPONS DE L'OURTHE A1 2 00:55:16 05:08 11.71
58 4037 LACRIOLA JONATHAN   SH 21 00:55:18 05:08 11.70
59 257 GAUDISSEUR LIONEL   SH 22 00:55:31 05:09 11.65
60 4069 ROSILLON DOMINIQUE ARCH V3 6 00:55:42 05:10 11.61
61 96 BOVEROUL ERIC   V1 13 00:55:43 05:10 11.61
62 4043 LICATA GAETANO   SH 23 00:55:49 05:11 11.59
63 187 LECLERE XAVIER   SH 24 00:55:54 05:11 11.57
64 4045 LOUIS MATHIEU   SH 25 00:55:55 05:11 11.57
65 183 GOBIN PIERRE TEAM MCP V1 14 00:56:03 05:12 11.54
66 4028 GERARD CHRISTOPHE G4R SH 26 00:56:30 05:14 11.45
67 4084 GRUSLIN DANIEL JCPMF TINLOT V2 10 00:56:48 05:16 11.39
68 4039 LAMPROYE DAVID PTIT BAR TEAM 0 3 00:57:17 05:19 11.29
69 4038 LAFORGE FREDERIC   V1 15 00:57:19 05:19 11.29
70 27 HEPTIA NOEL SER ATHL V4 1 00:57:22 05:19 11.28
71 4088 DREZE QUENTIN TEAM MARCEL V1 16 00:57:24 05:19 11.27
72 145 MAROT ANNE   SD 6 00:57:27 05:20 11.26
73 4070 ROUYER THOMAS   SH 27 00:57:43 05:21 11.21
74 4023 ETIENNE BERNARD   V2 11 00:57:43 05:21 11.21
75 35 LEGROS JULIE JCPMF TINLOT SD 7 00:58:10 05:24 11.12
76 4049 MAURAGE SOPHIE   SD 8 00:58:27 05:25 11.07
77 4 BONA GUY SERUNNERS V4 2 00:58:43 05:27 11.02
78 4034 HUMBLET PATRICK   V2 12 00:58:56 05:28 10.98
79 4019 DEVILLET GUENAEL TRITRARAID V1 17 00:58:59 05:28 10.97
80 4014 DEFENDI SARA BBRT A1 3 00:59:00 05:28 10.96
81 4062 PUMA GIUSEPPE SER ATHL SH 28 00:59:05 05:29 10.95
82 4063 RAMAKERS MICHEL   A1 4 00:59:12 05:29 10.93
83 45 MUNAUT CARINE SER ATHL A2 2 00:59:14 05:30 10.92
84 37 LEGROS MARIE   SD 9 00:59:15 05:30 10.92
85 131 FRAITURE GILLES S FOULÉES DU PLAISIR SH 29 00:59:19 05:30 10.91
86 28 HUE CECILE   A1 5 00:59:51 05:33 10.81
87 4036 JOBE ERIC TAF V2 13 00:59:54 05:33 10.80
88 4006 BOTQUIN HUGUES   V2 14 00:59:55 05:33 10.80
89 47 NOEL CHRISTOPHE   V1 18 01:00:06 05:34 10.76
90 4058 NOEL MATHIS JE COURS À INCOURT SH 30 01:00:07 05:35 10.76
91 212 DARMONT PIERRE   V1 19 01:00:21 05:36 10.72
92 173 ALBERT VINCENT JCPMF ANGLEUR V2 15 01:00:38 05:37 10.67
93 210 PISVIN MIGUEL   V1 20 01:00:49 05:38 10.64
94 245 MOSSOUX LUDOVIC   V1 21 01:00:50 05:39 10.63
95 4057 NOEL LOIC   SH 31 01:01:04 05:40 10.59
96 33 LECLERE CORENTIN I LOVE RUNNING LIÈGE SH 32 01:01:05 05:40 10.59
97 209 MARCOTTY JEROME ASC SERAING SH 33 01:01:14 05:41 10.57
98 4053 MUKHERJEE SAMPATH MCP SH 34 01:01:21 05:41 10.54
99 4025 FRANCILLON JOHANNA TEAM MCP SD 10 01:01:34 05:43 10.51
100 4029 GUERMANT SIMON   ESH 2 01:01:41 05:43 10.49
101 4008 CARPENTIER THIERRY SERUNNERS V4 3 01:02:21 05:47 10.38
102 204 BOSSELOIR ANNICK RDV RUN A2 3 01:03:22 05:53 10.21
103 4082 FALZONE GAETANO NEUPRE AC V4 4 01:03:26 05:53 10.20
104 4061 POLET JUSTINE JCPMF TINLOT SD 11 01:03:41 05:54 10.16
105 4027 GALLO FABIO   V2 16 01:03:44 05:55 10.15
106 4072 SOMJA FLORENCE   SD 12 01:04:06 05:57 10.09
107 4005 BIONDOLILLO NICOLAS   SH 35 01:04:15 05:58 10.07
108 4064 RAPPE CAROLINE   SD 13 01:04:55 06:01 9.97
109 4020 DEWANDRE CYRIELLE   SD 14 01:04:57 06:01 9.96
110 98 BATTISTINI LUCIANO NEUPRE AC V3 7 01:05:24 06:04 9.89
111 4077 VILCOT DAVID SERUNNERS SH 36 01:05:25 06:04 9.89
112 244 DEGRANGE VALERIE   SD 15 01:06:12 06:08 9.77
113 4046 LUYMOEYEN JULIE   SD 16 01:06:15 06:09 9.77
114 15 DONCEEL MARC   V2 17 01:06:21 06:09 9.75
115 4003 ALTOMARE XAVIER   V1 22 01:06:28 06:10 9.73
116 78 DELIEGE ALBERT   V1 23 01:06:53 06:12 9.67
117 3 GIMENNE NICOLAS RUN2TRAIL V2 18 01:07:20 06:15 9.61
118 4021 DUPONT ANTHONY   SH 37 01:08:51 06:23 9.40
119 85 VENEZIANO CARINE SER ATHL A1 6 01:09:19 06:26 9.33
120 269 RENARD LUCAS   ESH 3 01:09:33 06:27 9.30
121 4032 HASTIR FLORE TRITRARAID SD 17 01:10:38 06:33 9.16
122 4073 SOTTIAUX AURORE   SD 18 01:10:39 06:33 9.16
123 74 SZWAKAJZER HONORINA SER ATHL A3 1 01:11:11 06:36 9.09
124 4075 TOUMSIN CHRISTOPHE   SH 38 01:13:26 06:49 8.81
125 4060 POLET GERALDINE JCPMF TINLOT SD 19 01:14:19 06:54 8.71
126 255 STASSAIN JEAN-MARC   V1 24 01:14:45 06:56 8.65
127 4083 PINCIC MARKO SERUNNERS V4 5 01:15:00 06:57 8.63
128 4068 ROBBI RUDY RUNNERS V4 6 01:15:01 06:57 8.62
129 4055 NETO JESSICA   SD 20 01:16:10 07:04 8.49
130 4079 KABWE JEANNE SER ATHL A2 4 01:16:55 07:08 8.41
131 4067 RION SOPHIE   SD 21 01:16:56 07:08 8.41
132 4002 AERTS CARINE   A2 5 01:16:57 07:08 8.41
133 213 DEWITTE CHRISTINE   A1 7 01:16:57 07:08 8.41